createdAt,value
2022-11-01T00:01:41.535Z,4.80
2022-11-01T00:04:09.668Z,4.67
2022-11-01T00:06:37.954Z,4.47
2022-11-01T00:09:06.944Z,4.80
2022-11-01T00:11:34.799Z,4.30
2022-11-01T00:14:04.113Z,4.57
2022-11-01T00:16:32.441Z,4.60
2022-11-01T00:19:00.366Z,4.53
2022-11-01T00:21:28.157Z,3.80
2022-11-01T00:23:55.988Z,4.43
2022-11-01T00:26:26.235Z,4.20
2022-11-01T00:28:54.205Z,4.30
2022-11-01T00:31:23.869Z,4.57
2022-11-01T00:33:51.966Z,4.83
2022-11-01T00:36:19.992Z,4.50
2022-11-01T00:38:51.069Z,4.00
2022-11-01T00:41:20.635Z,4.40
2022-11-01T00:43:48.486Z,4.43
2022-11-01T00:46:16.523Z,4.17
2022-11-01T00:48:45.757Z,4.67
2022-11-01T00:51:13.686Z,4.60
2022-11-01T00:53:41.488Z,4.30
2022-11-01T00:56:09.653Z,4.03
2022-11-01T00:58:37.489Z,4.47
2022-11-01T01:01:05.563Z,4.30
2022-11-01T01:03:33.502Z,4.17
2022-11-01T01:06:02.725Z,4.47
2022-11-01T01:08:30.629Z,4.60
2022-11-01T01:10:58.504Z,4.77
2022-11-01T01:13:26.337Z,4.40
2022-11-01T01:15:54.192Z,4.37
2022-11-01T01:18:22.054Z,4.00
2022-11-01T01:20:49.847Z,4.43
2022-11-01T01:23:19.736Z,4.43
2022-11-01T01:25:47.540Z,4.93
2022-11-01T01:28:15.356Z,4.40
2022-11-01T01:30:43.201Z,4.37
2022-11-01T01:35:40.513Z,4.83
2022-11-01T01:38:08.891Z,4.30
2022-11-01T01:40:38.060Z,4.77
2022-11-01T01:43:05.960Z,4.70
2022-11-01T01:45:37.233Z,4.27
2022-11-01T01:48:20.335Z,4.40
2022-11-01T01:50:51.782Z,4.27
2022-11-01T01:53:24.302Z,4.30
2022-11-01T01:55:57.679Z,4.40
2022-11-01T01:58:30.113Z,3.97
2022-11-01T02:00:58.428Z,4.53
2022-11-01T02:03:31.021Z,4.30
2022-11-01T02:06:04.244Z,4.47
2022-11-01T02:08:33.552Z,4.20
2022-11-01T02:11:05.299Z,3.97
2022-11-01T02:13:33.170Z,4.13
2022-11-01T02:16:15.671Z,3.80
2022-11-01T02:18:56.022Z,4.30
2022-11-01T02:21:42.605Z,3.87
2022-11-01T02:24:43.864Z,3.90
2022-11-01T02:27:34.598Z,4.33
2022-11-01T02:30:21.186Z,4.00
2022-11-01T02:33:06.069Z,4.03
2022-11-01T02:35:56.422Z,4.37
2022-11-01T02:38:28.385Z,4.20
2022-11-01T02:41:04.596Z,3.67
2022-11-01T02:43:47.642Z,3.73
2022-11-01T02:46:34.860Z,3.90
2022-11-01T02:49:04.770Z,3.70
2022-11-01T02:51:34.293Z,4.00
2022-11-01T02:54:02.802Z,3.67
2022-11-01T02:56:31.376Z,3.67
2022-11-01T02:58:59.318Z,3.83
2022-11-01T03:01:30.223Z,3.93
2022-11-01T03:03:59.499Z,3.60
2022-11-01T03:06:35.408Z,4.03
2022-11-01T03:09:07.069Z,4.00
2022-11-01T03:11:42.346Z,3.80
2022-11-01T03:14:19.500Z,3.63
2022-11-01T03:16:54.325Z,3.47
2022-11-01T03:19:39.621Z,3.93
2022-11-01T03:22:14.093Z,3.50
2022-11-01T03:24:47.185Z,4.00
2022-11-01T03:27:21.355Z,4.10
2022-11-01T03:29:56.856Z,3.13
2022-11-01T03:32:28.210Z,2.40
2022-11-01T03:34:58.104Z,2.50
2022-11-01T03:37:29.928Z,2.00
2022-11-01T03:40:02.752Z,2.10
2022-11-01T03:42:31.876Z,2.00
2022-11-01T03:45:05.374Z,1.90
2022-11-01T03:47:33.490Z,1.90
2022-11-01T03:50:13.298Z,1.60
2022-11-01T03:52:43.037Z,1.80
2022-11-01T03:55:18.892Z,1.60
2022-11-01T03:57:46.922Z,2.20
2022-11-01T04:00:16.717Z,1.70
2022-11-01T04:02:44.714Z,1.90
2022-11-01T04:05:12.933Z,2.20
2022-11-01T04:07:42.886Z,1.57
2022-11-01T04:10:11.783Z,1.57
2022-11-01T04:12:40.020Z,1.43
2022-11-01T04:15:26.339Z,1.10
2022-11-01T04:18:21.781Z,1.10
2022-11-01T04:20:49.977Z,1.03
2022-11-01T04:23:19.481Z,0.93
2022-11-01T04:25:47.714Z,0.90
2022-11-01T04:28:15.563Z,1.20
2022-11-01T04:30:44.748Z,1.37
2022-11-01T04:33:12.606Z,1.10
2022-11-01T04:35:40.545Z,0.90
2022-11-01T04:38:09.851Z,1.23
2022-11-01T04:40:39.105Z,0.90
2022-11-01T04:43:07.028Z,1.30
2022-11-01T04:45:35.014Z,1.10
2022-11-01T04:48:06.453Z,0.90
2022-11-01T04:50:34.914Z,0.90
2022-11-01T04:53:03.705Z,1.40
2022-11-01T04:55:32.054Z,1.33
2022-11-01T04:58:01.232Z,1.10
2022-11-01T05:00:29.058Z,1.00
2022-11-01T05:03:03.297Z,1.00
2022-11-01T05:05:31.655Z,1.07
2022-11-01T05:08:03.564Z,1.40
2022-11-01T05:10:32.190Z,1.20
2022-11-01T05:13:01.895Z,1.07
2022-11-01T05:15:30.017Z,1.30
2022-11-01T05:17:59.945Z,1.10
2022-11-01T05:20:27.914Z,1.23
2022-11-01T05:23:00.007Z,1.27
2022-11-01T05:25:30.531Z,1.07
2022-11-01T05:28:05.714Z,1.13
2022-11-01T05:30:34.771Z,1.37
2022-11-01T05:33:03.805Z,1.10
2022-11-01T05:35:32.349Z,0.93
2022-11-01T05:38:00.526Z,1.20
2022-11-01T05:40:28.620Z,1.27
2022-11-01T05:42:56.455Z,1.20
2022-11-01T05:45:26.300Z,1.20
2022-11-01T05:47:54.192Z,1.23
2022-11-01T05:50:22.150Z,1.20
2022-11-01T05:52:50.767Z,1.30
2022-11-01T05:55:18.739Z,1.20
2022-11-01T06:00:19.401Z,1.60
2022-11-01T06:02:48.632Z,1.13
2022-11-01T06:05:16.658Z,1.23
2022-11-01T06:07:44.517Z,1.20
2022-11-01T06:10:12.388Z,1.40
2022-11-01T06:12:40.221Z,1.17
2022-11-01T06:15:09.010Z,1.17
2022-11-01T06:17:36.917Z,1.20
2022-11-01T06:20:07.379Z,1.20
2022-11-01T06:22:36.136Z,1.20
2022-11-01T06:25:04.394Z,1.27
2022-11-01T06:27:32.478Z,1.50
2022-11-01T06:30:00.333Z,1.60
2022-11-01T06:32:28.239Z,1.47
2022-11-01T06:34:56.060Z,1.20
2022-11-01T06:37:25.263Z,1.50
2022-11-01T06:39:53.109Z,1.40
2022-11-01T06:42:20.953Z,1.37
2022-11-01T06:44:48.804Z,1.37
2022-11-01T06:47:16.634Z,1.53
2022-11-01T06:49:44.637Z,1.50
2022-11-01T06:52:12.525Z,1.50
2022-11-01T06:54:41.722Z,1.37
2022-11-01T06:57:09.548Z,1.30
2022-11-01T06:59:37.385Z,1.40
2022-11-01T07:02:05.398Z,1.63
2022-11-01T07:04:33.350Z,1.70
2022-11-01T07:07:01.197Z,1.53
2022-11-01T07:09:29.077Z,1.70
2022-11-01T07:11:58.866Z,1.63
2022-11-01T07:14:26.715Z,1.57
2022-11-01T07:16:54.531Z,1.87
2022-11-01T07:19:23.614Z,1.70
2022-11-01T07:21:51.485Z,1.53
2022-11-01T07:24:19.400Z,1.50
2022-11-01T07:26:47.470Z,1.60
2022-11-01T07:29:16.742Z,2.00
2022-11-01T07:31:44.551Z,1.60
2022-11-01T07:34:12.389Z,1.33
2022-11-01T07:36:40.261Z,1.57
2022-11-01T07:39:08.126Z,1.67
2022-11-01T07:41:35.938Z,1.77
2022-11-01T07:44:03.814Z,2.00
2022-11-01T07:46:33.546Z,1.70
2022-11-01T07:49:01.378Z,1.77
2022-11-01T07:51:29.209Z,2.03
2022-11-01T07:53:57.224Z,2.20
2022-11-01T07:56:25.135Z,1.80
2022-11-01T07:58:52.939Z,2.10
2022-11-01T08:01:21.104Z,2.20
2022-11-01T08:03:50.363Z,2.10
2022-11-01T08:06:18.327Z,2.10
2022-11-01T08:08:46.884Z,2.10
2022-11-01T08:11:14.707Z,2.17
2022-11-01T08:13:42.517Z,2.20
2022-11-01T08:16:10.354Z,2.17
2022-11-01T08:18:38.211Z,2.17
2022-11-01T08:21:07.519Z,2.13
2022-11-01T08:23:35.721Z,1.80
2022-11-01T08:26:06.122Z,2.70
2022-11-01T08:28:34.028Z,2.20
2022-11-01T08:31:07.385Z,2.10
2022-11-01T08:33:35.622Z,2.03
2022-11-01T08:36:03.756Z,2.20
2022-11-01T08:38:32.937Z,1.90
2022-11-01T08:41:01.156Z,2.10
2022-11-01T08:43:29.277Z,2.00
2022-11-01T08:45:59.877Z,1.90
2022-11-01T08:48:27.746Z,2.00
2022-11-01T08:50:55.581Z,2.33
2022-11-01T08:53:24.806Z,2.50
2022-11-01T08:55:57.529Z,1.87
2022-11-01T08:58:25.878Z,2.30
2022-11-01T09:00:53.913Z,1.90
2022-11-01T09:03:21.832Z,2.13
2022-11-01T09:05:49.654Z,2.30
2022-11-01T09:08:17.517Z,2.20
2022-11-01T09:10:45.343Z,2.30
2022-11-01T09:13:14.540Z,2.33
2022-11-01T09:15:42.375Z,2.17
2022-11-01T09:18:10.413Z,2.57
2022-11-01T09:20:38.680Z,2.30
2022-11-01T09:23:06.637Z,2.20
2022-11-01T09:25:34.579Z,1.90
2022-11-01T09:28:02.441Z,2.60
2022-11-01T09:30:31.586Z,2.40
2022-11-01T09:32:59.543Z,2.50
2022-11-01T09:35:27.569Z,2.13
2022-11-01T09:37:58.982Z,2.70
2022-11-01T09:40:27.841Z,2.47
2022-11-01T09:43:01.398Z,2.63
2022-11-01T09:45:34.319Z,2.40
2022-11-01T09:48:04.738Z,2.40
2022-11-01T09:50:35.230Z,2.50
2022-11-01T09:53:05.242Z,2.83
2022-11-01T09:55:44.243Z,2.13
2022-11-01T09:58:23.846Z,2.37
2022-11-01T10:01:01.480Z,2.23
2022-11-01T10:03:48.400Z,1.93
2022-11-01T10:06:20.080Z,2.50
2022-11-01T10:09:02.342Z,2.77
2022-11-01T10:12:04.809Z,2.40
2022-11-01T10:14:47.879Z,2.47
2022-11-01T10:17:19.105Z,2.23
2022-11-01T10:19:49.817Z,2.20
2022-11-01T10:22:19.826Z,2.40
2022-11-01T10:24:52.655Z,2.20
2022-11-01T10:27:30.684Z,2.33
2022-11-01T10:30:03.954Z,2.93
2022-11-01T10:32:39.929Z,2.53
2022-11-01T10:35:15.192Z,2.40
2022-11-01T10:38:03.989Z,2.10
2022-11-01T10:40:42.449Z,2.67
2022-11-01T10:43:15.129Z,2.53
2022-11-01T10:45:47.561Z,2.67
2022-11-01T10:48:25.905Z,2.27
2022-11-01T10:50:55.048Z,2.37
2022-11-01T10:53:23.389Z,2.30
2022-11-01T10:55:56.860Z,2.10
2022-11-01T10:58:34.516Z,2.07
2022-11-01T11:01:03.587Z,2.10
2022-11-01T11:03:32.959Z,2.17
2022-11-01T11:06:05.767Z,1.90
2022-11-01T11:08:36.344Z,2.17
2022-11-01T11:11:10.802Z,2.47
2022-11-01T11:13:42.838Z,2.17
2022-11-01T11:16:31.096Z,1.90
2022-11-01T11:19:16.132Z,1.80
2022-11-01T11:21:45.597Z,2.13
2022-11-01T11:24:19.657Z,2.43
2022-11-01T11:26:53.068Z,2.00
2022-11-01T11:29:37.406Z,2.50
2022-11-01T11:32:08.259Z,2.20
2022-11-01T11:34:39.130Z,2.00
2022-11-01T11:37:09.655Z,2.10
2022-11-01T11:39:39.040Z,2.60
2022-11-01T11:42:17.214Z,1.97
2022-11-01T11:44:50.561Z,1.70
2022-11-01T11:47:24.437Z,1.83
2022-11-01T11:49:54.564Z,2.00
2022-11-01T11:52:28.548Z,2.10
2022-11-01T11:54:56.760Z,2.17
2022-11-01T11:57:27.000Z,1.90
2022-11-01T11:59:57.578Z,1.90
2022-11-01T12:02:29.032Z,1.70
2022-11-01T12:05:01.450Z,1.60
2022-11-01T12:07:32.069Z,2.23
2022-11-01T12:10:02.836Z,1.93
2022-11-01T12:12:32.620Z,1.93
2022-11-01T12:15:01.941Z,2.30
2022-11-01T12:17:36.355Z,1.80
2022-11-01T12:20:21.822Z,1.83
2022-11-01T12:23:17.288Z,2.40
2022-11-01T12:25:47.105Z,2.03
2022-11-01T12:28:22.049Z,1.97
2022-11-01T12:30:53.144Z,2.20
2022-11-01T12:33:27.408Z,1.97
2022-11-01T12:35:55.762Z,1.93
2022-11-01T12:38:39.562Z,1.87
2022-11-01T12:41:25.004Z,1.93
2022-11-01T12:44:20.791Z,1.80
2022-11-01T12:46:54.618Z,2.33
2022-11-01T12:49:30.452Z,1.83
2022-11-01T12:52:04.079Z,1.90
2022-11-01T12:54:39.292Z,2.00
2022-11-01T12:57:15.129Z,1.63
2022-11-01T12:59:44.724Z,1.90
2022-11-01T13:02:27.230Z,1.80
2022-11-01T13:05:00.806Z,1.80
2022-11-01T13:07:39.182Z,1.90
2022-11-01T13:10:14.554Z,2.23
2022-11-01T13:12:50.072Z,1.90
2022-11-01T13:15:24.235Z,2.10
2022-11-01T13:18:05.311Z,1.70
2022-11-01T13:20:41.743Z,1.87
2022-11-01T13:23:23.610Z,1.73
2022-11-01T13:26:01.625Z,1.67
2022-11-01T13:28:58.220Z,1.80
2022-11-01T13:31:38.069Z,1.70
2022-11-01T13:34:19.762Z,1.70
2022-11-01T13:36:54.162Z,1.53
2022-11-01T13:39:27.476Z,1.60
2022-11-01T13:42:03.682Z,1.90
2022-11-01T13:44:35.466Z,1.63
2022-11-01T13:47:33.980Z,1.63
2022-11-01T13:50:37.473Z,1.67
2022-11-01T13:53:13.300Z,1.43
2022-11-01T13:55:47.152Z,2.00
2022-11-01T13:58:19.529Z,1.90
2022-11-01T14:00:49.943Z,1.67
2022-11-01T14:03:24.477Z,1.70
2022-11-01T14:06:24.801Z,1.80
2022-11-01T14:09:20.954Z,1.73
2022-11-01T14:11:50.380Z,1.97
2022-11-01T14:14:53.717Z,1.50
2022-11-01T14:17:55.888Z,1.57
2022-11-01T14:20:49.292Z,1.80
2022-11-01T14:23:48.325Z,1.63
2022-11-01T14:26:48.732Z,2.00
2022-11-01T14:29:16.975Z,1.80
2022-11-01T14:31:48.914Z,1.80
2022-11-01T14:34:27.460Z,1.70
2022-11-01T14:36:59.023Z,1.73
2022-11-01T14:39:33.657Z,1.47
2022-11-01T14:42:03.487Z,1.70
2022-11-01T14:44:36.333Z,1.50
2022-11-01T14:47:18.463Z,1.63
2022-11-01T14:49:46.510Z,1.60
2022-11-01T14:52:22.418Z,1.80
2022-11-01T14:54:55.559Z,1.53
2022-11-01T14:57:28.232Z,1.50
2022-11-01T14:59:57.394Z,1.40
2022-11-01T15:02:34.441Z,1.50
2022-11-01T15:05:02.953Z,1.70
2022-11-01T15:07:33.234Z,1.57
2022-11-01T15:10:03.324Z,2.00
2022-11-01T15:12:34.406Z,1.63
2022-11-01T15:15:03.271Z,1.80
2022-11-01T15:17:35.081Z,1.87
2022-11-01T15:20:12.943Z,1.73
2022-11-01T15:22:42.806Z,1.87
2022-11-01T15:25:21.363Z,1.40
2022-11-01T15:27:50.309Z,1.73
2022-11-01T15:30:24.011Z,1.53
2022-11-01T15:33:13.773Z,1.90
2022-11-01T15:35:42.086Z,1.50
2022-11-01T15:38:20.653Z,1.93
2022-11-01T15:40:50.189Z,1.63
2022-11-01T15:43:19.849Z,1.60
2022-11-01T15:45:50.020Z,1.43
2022-11-01T15:48:22.074Z,1.53
2022-11-01T15:50:53.871Z,1.70
2022-11-01T15:53:25.658Z,2.00
2022-11-01T15:55:56.257Z,1.73
2022-11-01T15:58:27.958Z,2.03
2022-11-01T16:01:01.987Z,1.50
2022-11-01T16:03:36.243Z,1.50
2022-11-01T16:06:13.769Z,1.60
2022-11-01T16:08:45.918Z,2.03
2022-11-01T16:11:18.502Z,1.60
2022-11-01T16:13:50.281Z,1.90
2022-11-01T16:16:18.179Z,1.37
2022-11-01T16:18:48.158Z,1.73
2022-11-01T16:21:28.710Z,1.63
2022-11-01T16:24:02.860Z,1.90
2022-11-01T16:26:33.371Z,1.63
2022-11-01T16:31:47.137Z,2.00
2022-11-01T16:34:24.661Z,1.97
2022-11-01T16:36:52.811Z,2.00
2022-11-01T16:39:27.149Z,1.67
2022-11-01T16:41:55.036Z,1.50
2022-11-01T16:44:22.965Z,1.70
2022-11-01T16:46:51.609Z,2.17
2022-11-01T16:49:23.210Z,2.00
2022-11-01T16:51:52.386Z,1.87
2022-11-01T16:54:20.220Z,2.40
2022-11-01T16:56:50.235Z,2.10
2022-11-01T16:59:27.394Z,2.43
2022-11-01T17:01:58.040Z,2.73
2022-11-01T17:04:28.424Z,2.10
2022-11-01T17:06:58.868Z,2.40
2022-11-01T17:09:31.414Z,2.33
2022-11-01T17:11:59.263Z,1.90
2022-11-01T17:14:27.110Z,2.03
2022-11-01T17:16:56.114Z,2.00
2022-11-01T17:19:29.261Z,1.97
2022-11-01T17:21:58.844Z,2.00
2022-11-01T17:24:27.109Z,2.13
2022-11-01T17:26:57.805Z,1.87
2022-11-01T17:29:25.709Z,2.20
2022-11-01T17:31:53.549Z,2.40
2022-11-01T17:34:21.423Z,1.90
2022-11-01T17:36:51.273Z,2.20
2022-11-01T17:39:19.668Z,2.30
2022-11-01T17:41:47.492Z,2.13
2022-11-01T17:44:15.578Z,2.17
2022-11-01T17:46:43.689Z,2.73
2022-11-01T17:49:14.504Z,2.33
2022-11-01T17:51:42.430Z,2.47
2022-11-01T17:54:11.685Z,2.50
2022-11-01T17:56:39.613Z,1.90
2022-11-01T17:59:08.605Z,2.07
2022-11-01T18:01:38.568Z,2.27
2022-11-01T18:04:07.277Z,2.00
2022-11-01T18:06:35.167Z,1.70
2022-11-01T18:09:05.440Z,2.10
2022-11-01T18:11:45.929Z,2.03
2022-11-01T18:14:17.280Z,2.60
2022-11-01T18:16:49.985Z,2.00
2022-11-01T18:19:32.739Z,2.40
2022-11-01T18:22:10.442Z,2.10
2022-11-01T18:24:42.028Z,1.97
2022-11-01T18:27:12.638Z,2.00
2022-11-01T18:29:42.788Z,1.90
2022-11-01T18:32:17.758Z,2.27
2022-11-01T18:34:50.036Z,2.50
2022-11-01T18:37:25.057Z,2.23
2022-11-01T18:40:02.139Z,2.30
2022-11-01T18:42:31.713Z,2.30
2022-11-01T18:45:03.272Z,1.83
2022-11-01T18:47:35.615Z,2.20
2022-11-01T18:50:16.161Z,2.30
2022-11-01T18:53:12.445Z,2.43
2022-11-01T18:55:40.313Z,2.60
2022-11-01T18:58:16.711Z,2.10
2022-11-01T19:00:45.217Z,2.20
2022-11-01T19:03:15.220Z,2.23
2022-11-01T19:05:43.546Z,2.50
2022-11-01T19:08:22.416Z,2.33
2022-11-01T19:10:50.898Z,2.33
2022-11-01T19:13:25.639Z,2.10
2022-11-01T19:15:54.474Z,2.23
2022-11-01T19:18:24.198Z,2.20
2022-11-01T19:20:53.916Z,2.17
2022-11-01T19:23:25.374Z,2.50
2022-11-01T19:25:53.729Z,2.50
2022-11-01T19:28:27.137Z,1.90
2022-11-01T19:30:58.277Z,2.30
2022-11-01T19:33:33.761Z,2.50
2022-11-01T19:36:06.461Z,2.40
2022-11-01T19:38:34.964Z,2.07
2022-11-01T19:41:02.789Z,2.13
2022-11-01T19:43:33.664Z,2.10
2022-11-01T19:46:01.589Z,2.30
2022-11-01T19:48:31.198Z,2.13
2022-11-01T19:51:00.075Z,2.67
2022-11-01T19:53:30.775Z,2.33
2022-11-01T19:56:01.497Z,2.60
2022-11-01T19:58:37.293Z,2.20
2022-11-01T20:01:31.149Z,2.13
2022-11-01T20:04:00.817Z,2.53
2022-11-01T20:06:37.212Z,2.20
2022-11-01T20:09:10.145Z,2.47
2022-11-01T20:11:38.100Z,2.33
2022-11-01T20:14:07.302Z,2.40
2022-11-01T20:16:35.185Z,2.20
2022-11-01T20:19:02.995Z,2.77
2022-11-01T20:21:30.837Z,2.60
2022-11-01T20:23:59.331Z,2.17
2022-11-01T20:26:27.413Z,2.30
2022-11-01T20:28:55.822Z,2.00
2022-11-01T20:31:25.695Z,2.30
2022-11-01T20:33:53.619Z,2.13
2022-11-01T20:36:22.199Z,2.17
2022-11-01T20:38:50.066Z,2.43
2022-11-01T20:41:18.981Z,2.30
2022-11-01T20:43:46.913Z,2.43
2022-11-01T20:46:15.001Z,2.30
2022-11-01T20:48:45.259Z,2.23
2022-11-01T20:51:13.189Z,2.37
2022-11-01T20:53:41.559Z,2.30
2022-11-01T20:56:09.931Z,2.17
2022-11-01T20:58:40.307Z,3.00
2022-11-01T21:01:14.863Z,2.37
2022-11-01T21:03:44.369Z,2.90
2022-11-01T21:06:14.334Z,2.10
2022-11-01T21:08:44.857Z,2.30
2022-11-01T21:11:20.725Z,2.00
2022-11-01T21:13:50.805Z,2.73
2022-11-01T21:16:25.096Z,2.40
2022-11-01T21:18:58.025Z,2.30
2022-11-01T21:21:31.230Z,2.10
2022-11-01T21:24:00.752Z,2.07
2022-11-01T21:26:34.150Z,1.90
2022-11-01T21:29:05.853Z,2.10
2022-11-01T21:31:35.101Z,2.20
2022-11-01T21:34:19.506Z,2.40
2022-11-01T21:36:48.720Z,2.27
2022-11-01T21:39:20.492Z,2.80
2022-11-01T21:41:50.590Z,2.40
2022-11-01T21:44:24.639Z,1.83
2022-11-01T21:46:54.916Z,2.27
2022-11-01T21:49:29.471Z,2.57
2022-11-01T21:52:00.331Z,2.67
2022-11-01T21:54:29.545Z,2.50
2022-11-01T21:56:57.899Z,2.23
2022-11-01T21:59:26.815Z,2.40
2022-11-01T22:01:55.793Z,2.00
2022-11-01T22:04:28.506Z,2.37
2022-11-01T22:06:58.577Z,2.33
2022-11-01T22:09:27.635Z,2.73
2022-11-01T22:11:55.605Z,2.80
2022-11-01T22:14:23.877Z,2.40
2022-11-01T22:16:52.054Z,2.00
2022-11-01T22:19:19.865Z,1.87
2022-11-01T22:21:47.714Z,2.10
2022-11-01T22:24:16.893Z,2.47
2022-11-01T22:26:44.717Z,1.90
2022-11-01T22:29:12.570Z,2.37
2022-11-01T22:31:40.397Z,2.33
2022-11-01T22:34:08.857Z,2.40
2022-11-01T22:36:37.830Z,2.20
2022-11-01T22:39:14.103Z,1.87
2022-11-01T22:41:43.265Z,2.10
2022-11-01T22:44:15.897Z,2.50
2022-11-01T22:46:55.080Z,2.00
2022-11-01T22:49:28.774Z,2.10
2022-11-01T22:51:58.815Z,2.17
2022-11-01T22:54:39.956Z,2.37
2022-11-01T22:57:15.796Z,2.70
2022-11-01T22:59:46.877Z,2.33
2022-11-01T23:02:28.390Z,2.30
2022-11-01T23:05:03.582Z,1.87
2022-11-01T23:07:34.641Z,1.70
2022-11-01T23:10:06.105Z,2.13
2022-11-01T23:12:54.975Z,2.30
2022-11-01T23:15:28.836Z,2.00
2022-11-01T23:18:03.796Z,1.90
2022-11-01T23:20:31.645Z,2.50
2022-11-01T23:23:00.827Z,2.43
2022-11-01T23:25:30.137Z,2.20
2022-11-01T23:27:59.693Z,2.90
2022-11-01T23:30:27.957Z,1.93
2022-11-01T23:32:57.991Z,2.63
2022-11-01T23:35:25.845Z,1.70
2022-11-01T23:37:54.569Z,2.13
2022-11-01T23:40:24.466Z,2.90
2022-11-01T23:42:52.317Z,2.00
2022-11-01T23:45:30.295Z,2.33
2022-11-01T23:47:58.939Z,2.00
2022-11-01T23:50:31.011Z,2.13
2022-11-01T23:53:00.753Z,2.33
2022-11-01T23:55:30.475Z,2.20
2022-11-01T23:58:02.229Z,2.40
